Time;durP1;ratioP1;P1;durP2;ratioP2;P2;SDS_P1;SDS_P2;PMS_P1;PMS_P2;Temp;Humidity;BMP_temperature;BMP_pressure;BME280_temperature;BME280_humidity;BME280_pressure;Samples;Min_cycle;Max_cycle;Signal;HPM_P1;HPM_P2
2022/01/27 00:05:08;;;;;;;25.30;11.90;;;;;;;0.93;85.05;100232.73;208506;1313;143731;-76
2022/01/27 00:10:41;;;;;;;;;;;;;;;;;;;;;
2022/01/27 00:15:48;;;;;;;23.30;9.90;;;;;;;0.93;85.24;100230.36;208743;1313;141906;-78
2022/01/27 00:20:52;;;;;;;21.70;11.90;;;;;;;0.93;85.13;100220.06;208628;1313;141492;-78
2022/01/27 00:26:04;;;;;;;14.90;7.80;;;;;;;0.91;84.84;100211.96;208683;1313;140014;-79
2022/01/27 00:31:08;;;;;;;21.50;10.80;;;;;;;0.93;85.04;100206.05;208591;1313;141429;-79
2022/01/27 00:36:31;;;;;;;;;;;;;;;;;;;;;
2022/01/27 00:41:42;;;;;;;25.90;12.40;;;;;;;0.96;85.21;100221.84;209687;1313;140678;-71
2022/01/27 00:46:46;;;;;;;24.30;16.20;;;;;;;0.95;84.85;100226.98;208535;1317;139996;-68
2022/01/27 00:51:52;;;;;;;27.70;13.40;;;;;;;0.94;84.94;100228.85;210050;1313;141487;-70
2022/01/27 00:57:08;;;;;;;29.30;13.60;;;;;;;0.93;85.19;100221.04;208075;1313;140780;-69
2022/01/27 01:02:30;;;;;;;24.90;13.70;;;;;;;0.91;85.14;100225.13;208840;1313;142240;-69
2022/01/27 01:07:39;;;;;;;28.00;15.80;;;;;;;0.92;85.22;100220.45;209994;1314;143483;-76
2022/01/27 01:13:41;;;;;;;41.20;14.40;;;;;;;0.95;85.17;100217.90;209542;1313;140678;-77
2022/01/27 01:18:23;;;;;;;34.60;15.80;;;;;;;1.01;85.44;100215.88;209474;1314;141114;-81
2022/01/27 01:34:20;;;;;;;53.10;25.10;;;;;;;1.06;85.31;100206.25;207518;1313;140899;-75
2022/01/27 01:39:27;;;;;;;39.90;17.60;;;;;;;1.07;85.11;100202.45;207803;1313;142616;-75
2022/01/27 01:44:31;;;;;;;37.10;20.20;;;;;;;1.02;85.14;100197.21;207463;1314;141798;-74
2022/01/27 01:49:34;;;;;;;28.80;14.40;;;;;;;0.98;85.53;100197.56;207450;1313;140926;-73
2022/01/27 01:54:36;;;;;;;38.50;18.60;;;;;;;0.98;85.53;100200.39;207948;1313;141352;-77
2022/01/27 01:59:40;;;;;;;35.30;16.00;;;;;;;0.96;85.60;100192.58;208373;1313;152515;-81
2022/01/27 02:04:44;;;;;;;33.10;15.70;;;;;;;0.95;85.73;100184.66;208075;1313;141079;-80
2022/01/27 02:10:08;;;;;;;35.40;17.50;;;;;;;0.94;85.77;100181.55;208922;1313;142164;-82
2022/01/27 02:20:35;;;;;;;30.40;16.00;;;;;;;0.98;85.71;100175.58;208330;1316;141382;-74
2022/01/27 02:25:39;;;;;;;33.90;17.50;;;;;;;0.97;85.83;100169.54;207981;1316;141039;-78
2022/01/27 02:30:47;;;;;;;34.40;17.90;;;;;;;0.99;86.04;100173.15;208721;1316;143034;-76
2022/01/27 02:35:50;;;;;;;42.10;21.10;;;;;;;0.99;85.90;100168.79;208750;1316;141140;-85
2022/01/27 02:41:03;;;;;;;31.90;15.40;;;;;;;1.02;86.16;100156.48;208532;1314;141238;-78
2022/01/27 02:46:09;;;;;;;31.30;15.80;;;;;;;1.02;85.75;100153.08;208575;1313;141464;-78
2022/01/27 02:51:18;;;;;;;42.00;20.70;;;;;;;1.00;85.97;100161.02;208219;1313;139594;-76
2022/01/27 02:56:21;;;;;;;38.10;15.90;;;;;;;1.00;86.16;100157.96;208600;1318;142096;-80
2022/01/27 03:01:24;;;;;;;44.70;22.10;;;;;;;1.01;86.14;100142.31;209819;1313;141865;-78
2022/01/27 03:06:27;;;;;;;40.30;20.90;;;;;;;1.03;86.33;100134.84;209335;1320;140328;-74
2022/01/27 03:11:56;;;;;;;45.20;20.20;;;;;;;1.05;86.33;100140.26;209706;1317;141759;-73
2022/01/27 03:17:01;;;;;;;40.30;18.50;;;;;;;1.08;86.13;100141.77;209827;1317;140266;-78
2022/01/27 03:22:05;;;;;;;37.60;16.90;;;;;;;1.14;86.08;100140.66;209219;1317;141578;-71
2022/01/27 03:27:22;;;;;;;37.30;18.10;;;;;;;1.17;86.20;100141.91;208004;1313;139977;-72
2022/01/27 03:32:39;;;;;;;37.20;18.30;;;;;;;1.17;86.30;100134.86;208126;1313;139384;-72
2022/01/27 03:37:42;;;;;;;27.70;12.10;;;;;;;1.19;86.16;100134.70;208871;1313;140853;-72
2022/01/27 03:42:51;;;;;;;33.80;17.40;;;;;;;1.19;85.96;100128.02;209005;1317;141191;-79
2022/01/27 03:47:53;;;;;;;26.10;16.10;;;;;;;1.15;85.78;100116.92;208159;1312;140935;-78
2022/01/27 03:52:58;;;;;;;37.20;16.40;;;;;;;1.10;85.96;100115.55;208681;1313;162408;-76
2022/01/27 03:58:02;;;;;;;33.60;18.00;;;;;;;1.13;86.26;100104.98;209077;1313;141097;-77
2022/01/27 04:03:08;;;;;;;28.70;15.40;;;;;;;1.18;86.38;100095.20;209120;1314;142258;-80
2022/01/27 04:08:13;;;;;;;20.50;10.40;;;;;;;1.18;85.97;100080.83;208580;1317;141250;-77
2022/01/27 04:13:16;;;;;;;25.60;14.20;;;;;;;1.12;85.84;100081.71;208029;1313;141062;-69
2022/01/27 04:18:19;;;;;;;29.40;15.10;;;;;;;1.07;85.96;100075.73;207265;1313;141435;-70
2022/01/27 04:23:23;;;;;;;26.10;14.60;;;;;;;1.06;86.25;100072.52;207652;1313;142378;-71
2022/01/27 04:28:29;;;;;;;38.60;19.10;;;;;;;1.03;86.20;100069.51;207412;1316;142178;-75
2022/01/27 04:33:34;;;;;;;39.10;20.10;;;;;;;0.96;86.40;100060.80;207936;1313;140860;-76
2022/01/27 04:38:46;;;;;;;33.80;20.30;;;;;;;0.96;86.30;100055.23;207596;1314;140699;-79
2022/01/27 04:44:11;;;;;;;49.70;20.60;;;;;;;0.97;86.52;100053.19;209014;1316;141608;-79
2022/01/27 04:49:14;;;;;;;46.40;19.50;;;;;;;0.97;86.59;100054.24;208976;1313;142196;-80
2022/01/27 04:54:37;;;;;;;36.10;17.70;;;;;;;1.02;86.62;100049.65;208397;1313;141167;-79
2022/01/27 04:59:43;;;;;;;46.90;22.80;;;;;;;1.06;86.48;100046.23;208886;1313;140972;-81
2022/01/27 05:04:49;;;;;;;45.40;19.10;;;;;;;1.06;86.49;100047.71;209970;1317;140588;-88
2022/01/27 05:10:21;;;;;;;32.90;15.90;;;;;;;1.10;86.28;100035.57;207973;1313;141116;-78
2022/01/27 05:15:25;;;;;;;44.70;20.00;;;;;;;1.14;86.37;100020.08;209602;1313;140730;-76
2022/01/27 05:20:28;;;;;;;48.60;23.90;;;;;;;1.13;86.45;100015.55;209212;1313;140399;-79
2022/01/27 05:25:31;;;;;;;48.30;20.40;;;;;;;1.14;86.21;100018.27;208954;1314;139905;-77
2022/01/27 05:30:35;;;;;;;39.30;21.10;;;;;;;1.14;86.18;100013.24;209632;1319;141084;-78
2022/01/27 05:36:09;;;;;;;;;;;;;;;;;;;;;
2022/01/27 05:41:15;;;;;;;40.10;20.10;;;;;;;1.11;86.23;100017.72;209081;1316;140895;-74
2022/01/27 05:46:21;;;;;;;43.70;19.40;;;;;;;1.11;86.17;99999.70;208457;1319;141108;-76
2022/01/27 05:51:26;;;;;;;30.40;14.30;;;;;;;1.09;86.44;99984.50;207701;1313;141004;-80
2022/01/27 05:56:58;;;;;;;31.50;16.90;;;;;;;1.08;86.35;99981.09;207634;1313;209777;-76
2022/01/27 06:02:02;;;;;;;48.90;21.20;;;;;;;1.11;86.51;99978.23;208630;1317;139789;-77
2022/01/27 06:07:05;;;;;;;35.00;16.00;;;;;;;1.09;86.66;99972.98;209365;1313;141157;-75
2022/01/27 06:12:08;;;;;;;37.40;17.90;;;;;;;1.12;86.48;99968.12;207969;1314;140335;-79
2022/01/27 06:17:14;;;;;;;27.20;15.50;;;;;;;1.17;86.16;99961.45;207811;1313;139174;-78
2022/01/27 06:22:17;;;;;;;34.20;18.30;;;;;;;1.13;86.67;99954.71;208619;1313;142718;-81
2022/01/27 06:27:23;;;;;;;38.00;20.70;;;;;;;1.18;86.74;99949.94;208329;1313;139788;-83
2022/01/27 06:32:29;;;;;;;39.90;21.80;;;;;;;1.22;86.47;99948.89;208856;1313;141532;-83
2022/01/27 06:37:36;;;;;;;27.70;14.90;;;;;;;1.22;86.54;99947.59;208842;1313;139001;-87
2022/01/27 06:42:39;;;;;;;34.60;16.10;;;;;;;1.19;86.49;99935.69;208364;1316;139181;-86
2022/01/27 06:47:43;;;;;;;32.60;14.80;;;;;;;1.17;86.33;99938.32;208269;1316;141168;-84
2022/01/27 06:52:46;;;;;;;33.70;16.80;;;;;;;1.17;86.52;99939.14;207817;1313;140758;-82
2022/01/27 06:57:50;;;;;;;30.00;13.40;;;;;;;1.17;86.50;99933.03;208204;1313;141617;-84
2022/01/27 07:02:53;;;;;;;36.90;15.30;;;;;;;1.17;86.51;99931.62;207072;1313;370616;-83
2022/01/27 07:07:56;;;;;;;26.30;14.10;;;;;;;1.18;86.61;99921.98;207554;1313;142272;-73
2022/01/27 07:13:03;;;;;;;28.00;14.00;;;;;;;1.18;86.60;99914.75;209781;1313;140648;-74
2022/01/27 07:18:12;;;;;;;37.60;15.40;;;;;;;1.18;86.85;99905.70;209161;1314;140616;-75
2022/01/27 07:23:16;;;;;;;32.40;15.00;;;;;;;1.23;86.60;99903.61;209242;1314;140260;-77
2022/01/27 07:28:19;;;;;;;30.10;13.10;;;;;;;1.25;86.89;99900.98;210226;1314;141574;-74
2022/01/27 07:33:21;;;;;;;31.90;15.10;;;;;;;1.26;86.88;99902.82;209367;1317;140456;-77
2022/01/27 07:38:27;;;;;;;28.20;13.90;;;;;;;1.29;86.44;99896.69;209884;1313;141196;-73
2022/01/27 07:43:30;;;;;;;29.50;14.90;;;;;;;1.34;86.82;99887.65;208856;1313;141531;-67
2022/01/27 07:48:36;;;;;;;28.20;14.10;;;;;;;1.35;86.69;99879.90;208011;1313;142772;-72
2022/01/27 07:53:42;;;;;;;27.20;13.60;;;;;;;1.37;86.86;99875.33;209208;1313;141833;-72
2022/01/27 07:59:07;;;;;;;26.10;14.80;;;;;;;1.42;86.68;99865.13;208634;1313;141598;-74
2022/01/27 08:04:09;;;;;;;26.80;13.30;;;;;;;1.43;86.75;99863.77;208008;1313;140258;-72
2022/01/27 08:09:11;;;;;;;24.70;13.30;;;;;;;1.46;86.45;99856.60;207661;1313;140276;-73
2022/01/27 08:14:13;;;;;;;24.20;12.60;;;;;;;1.50;86.17;99849.13;209718;1313;140035;-73
2022/01/27 08:19:16;;;;;;;23.40;11.80;;;;;;;1.52;86.32;99848.72;207738;1313;140577;-73
2022/01/27 08:24:19;;;;;;;25.10;11.10;;;;;;;1.48;86.33;99847.64;207845;1313;140116;-72
2022/01/27 08:29:27;;;;;;;20.30;12.30;;;;;;;1.46;86.41;99842.07;207845;1313;141430;-67
2022/01/27 08:34:50;;;;;;;25.10;12.20;;;;;;;1.47;86.46;99829.16;207700;1313;141352;-67
2022/01/27 08:39:52;;;;;;;19.90;13.20;;;;;;;1.49;86.65;99815.30;207934;1313;140613;-75
2022/01/27 08:44:54;;;;;;;25.80;13.70;;;;;;;1.49;86.37;99808.48;208407;1313;141228;-71
2022/01/27 08:50:00;;;;;;;23.00;10.60;;;;;;;1.50;86.77;99798.02;208426;1313;141513;-67
2022/01/27 08:55:04;;;;;;;19.40;12.30;;;;;;;1.54;86.33;99794.94;207738;1313;142836;-74
2022/01/27 09:00:10;;;;;;;22.70;11.20;;;;;;;1.54;86.38;99796.32;208240;1313;141552;-72
2022/01/27 09:05:14;;;;;;;23.40;12.20;;;;;;;1.54;86.03;99793.48;207529;1315;141445;-71
2022/01/27 09:10:16;;;;;;;19.60;10.40;;;;;;;1.57;86.42;99789.27;207517;1316;142564;-74
2022/01/27 09:15:19;;;;;;;20.60;11.40;;;;;;;1.62;86.44;99789.27;207883;1316;141269;-69
2022/01/27 09:20:23;;;;;;;25.00;11.70;;;;;;;1.68;86.10;99786.95;208307;1313;139311;-71
2022/01/27 09:25:31;;;;;;;16.70;11.60;;;;;;;1.75;86.24;99776.92;208190;1313;140510;-69
2022/01/27 09:30:34;;;;;;;18.80;10.70;;;;;;;1.76;86.25;99773.99;209074;1313;139696;-75
2022/01/27 09:35:36;;;;;;;15.90;9.80;;;;;;;1.84;85.72;99761.86;208802;1316;140997;-78
2022/01/27 09:40:42;;;;;;;17.80;9.50;;;;;;;1.85;85.54;99759.02;209518;1313;142674;-72
2022/01/27 09:45:47;;;;;;;16.60;10.20;;;;;;;1.85;85.34;99750.18;209688;1313;141371;-71
2022/01/27 09:51:21;;;;;;;13.80;8.10;;;;;;;1.89;85.41;99741.20;208169;1313;140927;-68
2022/01/27 09:56:24;;;;;;;18.40;8.80;;;;;;;1.91;85.42;99728.05;207808;1313;139913;-71
2022/01/27 10:01:57;;;;;;;16.20;7.40;;;;;;;1.94;85.46;99728.21;209146;1314;139746;-73
2022/01/27 10:07:01;;;;;;;13.50;6.90;;;;;;;1.96;85.53;99720.40;208855;1313;140641;-82
2022/01/27 10:12:05;;;;;;;11.10;6.80;;;;;;;1.99;85.18;99712.55;208391;1313;141018;-73
2022/01/27 10:17:13;;;;;;;11.70;6.90;;;;;;;2.02;85.26;99708.35;208677;1313;142311;-74
2022/01/27 10:22:17;;;;;;;10.10;6.90;;;;;;;2.04;85.19;99688.45;207730;1313;140489;-76
2022/01/27 10:32:42;;;;;;;11.80;7.20;;;;;;;2.15;84.87;99680.30;207620;1313;141442;-65
2022/01/27 10:37:55;;;;;;;15.30;8.00;;;;;;;2.08;85.01;99665.45;208030;1313;140544;-72
2022/01/27 10:43:23;;;;;;;13.40;8.30;;;;;;;2.07;84.92;99662.04;208114;1313;140511;-72
2022/01/27 10:48:32;;;;;;;15.80;9.40;;;;;;;2.02;84.72;99658.08;208135;1313;140463;-86
2022/01/27 10:53:55;;;;;;;16.60;8.50;;;;;;;2.02;84.73;99638.83;207510;1313;141799;-70
2022/01/27 10:59:00;;;;;;;12.80;10.40;;;;;;;1.95;84.50;99645.73;207458;1313;140635;-79
2022/01/27 11:04:08;;;;;;;16.60;9.10;;;;;;;1.92;84.53;99632.22;208235;1314;140899;-75
2022/01/27 11:09:16;;;;;;;17.70;9.60;;;;;;;1.93;84.79;99626.56;207716;1313;140327;-69
2022/01/27 11:14:23;;;;;;;17.70;9.00;;;;;;;1.86;84.75;99605.65;207682;1313;140478;-70
2022/01/27 11:20:54;;;;;;;11.70;7.80;;;;;;;1.85;85.01;99598.96;208915;1313;142676;-70
2022/01/27 11:30:09;;;;;;;13.50;8.40;;;;;;;1.78;85.00;99596.45;209152;1314;140942;-70
2022/01/27 11:35:19;;;;;;;13.50;6.90;;;;;;;1.74;85.06;99588.42;209041;1311;140604;-71
2022/01/27 11:40:35;;;;;;;13.40;8.20;;;;;;;1.69;84.87;99583.17;209136;1313;142080;-68
2022/01/27 11:45:49;;;;;;;12.00;7.20;;;;;;;1.65;85.12;99574.88;209126;1313;141546;-73
2022/01/27 11:51:10;;;;;;;15.80;8.30;;;;;;;1.60;84.72;99563.36;209526;1312;140922;-70
2022/01/27 11:56:36;;;;;;;15.90;9.80;;;;;;;1.60;84.97;99558.56;209443;1311;140391;-75
2022/01/27 12:01:40;;;;;;;14.70;8.80;;;;;;;1.64;84.90;99553.01;209774;1313;142173;-74
2022/01/27 12:07:04;;;;;;;14.60;9.10;;;;;;;1.69;85.36;99543.20;208854;1313;140099;-70
2022/01/27 12:12:27;;;;;;;15.10;8.30;;;;;;;1.74;85.18;99529.52;207756;1313;141755;-73
2022/01/27 12:17:34;;;;;;;13.70;8.50;;;;;;;1.71;84.94;99518.41;207929;1313;142128;-75
2022/01/27 12:22:43;;;;;;;12.40;7.30;;;;;;;1.65;84.96;99514.65;208608;1313;230901;-75
2022/01/27 12:27:58;;;;;;;17.00;10.40;;;;;;;1.57;84.93;99511.34;208211;1313;140493;-73
2022/01/27 12:33:01;;;;;;;15.10;9.30;;;;;;;1.52;85.20;99502.83;207849;1313;140640;-75
2022/01/27 12:38:05;;;;;;;17.00;8.70;;;;;;;1.52;85.33;99488.42;208402;1313;140334;-69
2022/01/27 12:43:21;;;;;;;14.70;8.60;;;;;;;1.49;85.22;99475.41;207508;1313;141871;-73
2022/01/27 12:48:26;;;;;;;21.80;11.30;;;;;;;1.44;84.99;99474.98;207887;1313;140465;-69
2022/01/27 12:53:33;;;;;;;18.30;9.80;;;;;;;1.39;84.75;99475.92;207992;1313;140354;-68
2022/01/27 12:58:38;;;;;;;19.50;9.90;;;;;;;1.35;84.79;99469.84;207843;1314;140546;-72
2022/01/27 13:03:58;;;;;;;18.60;10.30;;;;;;;1.30;84.99;99463.30;208479;1313;140659;-73
2022/01/27 13:09:15;;;;;;;14.60;9.30;;;;;;;1.29;85.09;99455.79;207647;1313;141957;-69
2022/01/27 13:14:18;;;;;;;23.30;11.70;;;;;;;1.26;84.77;99448.84;208780;1313;140076;-74
2022/01/27 13:19:36;;;;;;;16.60;10.20;;;;;;;1.20;85.13;99436.12;209086;1313;140504;-77
2022/01/27 13:24:51;;;;;;;15.40;9.00;;;;;;;1.14;84.85;99433.50;207360;1313;142215;-68
2022/01/27 13:29:57;;;;;;;16.20;8.60;;;;;;;1.08;85.20;99427.92;208100;1313;140849;-77
2022/01/27 13:35:05;;;;;;;19.20;10.20;;;;;;;1.05;84.89;99426.14;208958;1310;139854;-74
2022/01/27 13:41:28;;;;;;;16.60;9.60;;;;;;;1.05;85.09;99412.85;209257;1310;140528;-71
2022/01/27 13:46:07;;;;;;;17.00;9.80;;;;;;;1.10;85.29;99402.34;209525;1313;141284;-72
2022/01/27 13:51:23;;;;;;;15.00;8.70;;;;;;;1.15;85.00;99393.13;209616;1313;139919;-73
2022/01/27 13:56:47;;;;;;;14.10;7.90;;;;;;;1.19;85.00;99385.01;209586;1313;143179;-73
2022/01/27 14:01:52;;;;;;;98.90;44.90;;;;;;;1.15;85.01;99380.00;208760;1313;140815;-77
2022/01/27 14:06:57;;;;;;;16.50;9.70;;;;;;;1.09;84.76;99367.23;209685;1313;142450;-71
2022/01/27 14:12:04;;;;;;;19.10;11.80;;;;;;;1.06;85.37;99364.52;209294;1313;139320;-73
2022/01/27 14:17:39;;;;;;;;;;;;;;;;;;;;;
2022/01/27 14:22:50;;;;;;;16.80;9.80;;;;;;;0.92;85.24;99355.95;209382;1313;140924;-75
2022/01/27 14:28:14;;;;;;;18.10;10.60;;;;;;;0.89;85.26;99344.77;208296;1313;233287;-69
2022/01/27 14:33:17;;;;;;;10.70;6.60;;;;;;;0.82;85.34;99337.38;208326;1313;140774;-71
2022/01/27 14:38:19;;;;;;;16.50;9.80;;;;;;;0.75;85.30;99338.60;208759;1311;139921;-67
2022/01/27 14:43:27;;;;;;;12.40;7.80;;;;;;;0.70;85.38;99342.56;207878;1313;140265;-74
2022/01/27 14:48:33;;;;;;;10.90;7.20;;;;;;;0.68;85.85;99348.21;208582;1313;140343;-69
2022/01/27 14:53:39;;;;;;;12.90;7.40;;;;;;;0.66;85.61;99334.52;207768;1314;141185;-72
2022/01/27 14:58:45;;;;;;;12.90;7.70;;;;;;;0.63;85.97;99328.55;207041;1313;893808;-71
2022/01/27 15:03:59;;;;;;;13.90;7.30;;;;;;;0.57;86.05;99334.13;208033;1314;143330;-70
2022/01/27 15:09:01;;;;;;;10.50;6.80;;;;;;;0.53;85.93;99333.98;209083;1313;140522;-72
2022/01/27 15:18:48;;;;;;;11.40;8.20;;;;;;;0.53;86.33;99314.75;209247;1313;140213;-73
2022/01/27 15:24:36;;;;;;;13.00;6.70;;;;;;;0.54;86.55;99314.31;208414;1313;163149;-70
2022/01/27 15:29:44;;;;;;;10.50;7.90;;;;;;;0.56;86.47;99313.38;207636;1313;141459;-68
2022/01/27 15:34:52;;;;;;;14.30;9.30;;;;;;;0.55;86.48;99306.38;208544;1313;141185;-69
2022/01/27 15:39:58;;;;;;;11.90;8.70;;;;;;;0.56;86.80;99308.65;209771;1314;141163;-68
2022/01/27 15:45:01;;;;;;;13.60;7.60;;;;;;;0.60;86.60;99309.55;208108;1313;141244;-74
2022/01/27 15:50:07;;;;;;;14.80;8.80;;;;;;;0.61;86.45;99310.50;210210;1313;142091;-71
2022/01/27 15:55:11;;;;;;;16.30;9.80;;;;;;;0.63;87.06;99302.23;210098;1313;141316;-70
2022/01/27 16:00:15;;;;;;;13.30;9.10;;;;;;;0.68;86.96;99300.44;210061;1313;140809;-72
2022/01/27 16:05:20;;;;;;;13.10;7.10;;;;;;;0.73;86.74;99301.28;210113;1313;141005;-72
2022/01/27 16:10:24;;;;;;;15.00;9.70;;;;;;;0.77;86.81;99301.13;208188;1313;140864;-67
2022/01/27 16:15:28;;;;;;;16.40;11.00;;;;;;;0.79;86.95;99299.77;208774;1313;139908;-74
2022/01/27 16:20:31;;;;;;;13.50;8.80;;;;;;;0.78;87.07;99297.12;208338;1313;140652;-76
2022/01/27 16:25:34;;;;;;;17.60;10.10;;;;;;;0.77;86.96;99295.29;207559;1313;140676;-72
2022/01/27 16:30:38;;;;;;;19.40;10.70;;;;;;;0.79;86.91;99293.50;208061;1313;140052;-72
2022/01/27 16:35:42;;;;;;;20.70;11.50;;;;;;;0.83;87.43;99289.02;207584;1313;140622;-66
2022/01/27 16:40:48;;;;;;;18.90;10.40;;;;;;;0.86;87.65;99286.23;207324;1313;163169;-68
2022/01/27 16:45:52;;;;;;;22.60;13.00;;;;;;;0.87;87.77;99281.54;207520;1314;139899;-71
2022/01/27 16:50:54;;;;;;;16.10;9.20;;;;;;;0.95;87.85;99274.99;207808;1313;139958;-71
2022/01/27 16:55:59;;;;;;;20.00;10.80;;;;;;;1.00;87.41;99276.79;207689;1313;140846;-71
2022/01/27 17:01:03;;;;;;;19.10;10.60;;;;;;;0.99;87.66;99264.42;207535;1312;139347;-73
2022/01/27 17:06:06;;;;;;;15.40;10.00;;;;;;;1.04;87.65;99257.98;207561;1313;139304;-68
2022/01/27 17:11:15;;;;;;;19.40;11.50;;;;;;;1.06;87.82;99258.00;208303;1313;139557;-71
2022/01/27 17:16:20;;;;;;;20.40;12.10;;;;;;;1.06;87.92;99258.08;207906;1313;139806;-70
2022/01/27 17:21:23;;;;;;;18.80;11.90;;;;;;;1.13;88.14;99258.85;208816;1313;139854;-69
2022/01/27 17:26:25;;;;;;;18.10;13.00;;;;;;;1.14;87.86;99258.66;209031;1313;139443;-69
2022/01/27 17:31:28;;;;;;;24.40;12.60;;;;;;;1.20;88.13;99256.52;208088;1313;139647;-67
2022/01/27 17:36:32;;;;;;;28.60;15.50;;;;;;;1.23;88.03;99247.20;207916;1313;140839;-67
2022/01/27 17:41:37;;;;;;;30.30;18.30;;;;;;;1.27;87.72;99242.21;209903;1313;141668;-71
2022/01/27 17:46:42;;;;;;;18.30;11.80;;;;;;;1.28;87.97;99240.52;209435;1313;140278;-71
2022/01/27 17:51:46;;;;;;;17.80;12.30;;;;;;;1.31;87.94;99232.38;209350;1313;139868;-68
2022/01/27 17:56:50;;;;;;;19.50;14.20;;;;;;;1.37;88.12;99227.54;209467;1313;140571;-67
2022/01/27 18:01:53;;;;;;;16.90;12.40;;;;;;;1.46;87.87;99218.86;209924;1313;140609;-68
2022/01/27 18:06:57;;;;;;;23.10;11.80;;;;;;;1.51;87.65;99205.83;209775;1313;140936;-66
2022/01/27 18:12:00;;;;;;;13.70;8.90;;;;;;;1.55;87.80;99198.67;208905;1313;140102;-68
2022/01/27 18:17:03;;;;;;;17.80;11.00;;;;;;;1.57;87.75;99196.40;208580;1314;139864;-68
2022/01/27 18:22:07;;;;;;;15.30;10.60;;;;;;;1.60;87.58;99180.70;209287;1313;139705;-70
2022/01/27 18:27:12;;;;;;;15.10;11.70;;;;;;;1.61;88.16;99178.73;208292;1313;141629;-69
2022/01/27 18:32:16;;;;;;;17.10;11.30;;;;;;;1.67;87.87;99165.84;209275;1313;140667;-69
2022/01/27 18:37:18;;;;;;;14.40;10.60;;;;;;;1.70;87.87;99155.64;209247;1310;140526;-71
2022/01/27 18:42:21;;;;;;;13.20;8.70;;;;;;;1.69;87.66;99154.02;207775;1313;140615;-69
2022/01/27 18:47:24;;;;;;;16.30;9.60;;;;;;;1.71;87.89;99156.70;208080;1313;140380;-68
2022/01/27 18:52:27;;;;;;;18.80;11.10;;;;;;;1.75;87.88;99156.09;209282;1313;140556;-72
2022/01/27 18:57:29;;;;;;;16.40;9.80;;;;;;;1.76;88.44;99146.14;207467;1313;141302;-66
2022/01/27 19:02:32;;;;;;;21.10;12.40;;;;;;;1.81;88.37;99149.17;207625;1313;140346;-65
2022/01/27 19:07:35;;;;;;;21.50;13.00;;;;;;;1.82;88.08;99148.58;208212;1313;140898;-64
2022/01/27 19:12:40;;;;;;;20.70;11.50;;;;;;;1.83;88.25;99150.42;208736;1314;140906;-66
2022/01/27 19:17:43;;;;;;;16.30;10.90;;;;;;;1.90;88.12;99141.89;207041;1313;141981;-67
2022/01/27 19:22:46;;;;;;;19.60;11.40;;;;;;;1.91;88.32;99133.69;209247;1313;141151;-70
2022/01/27 19:27:53;;;;;;;19.10;12.00;;;;;;;1.95;88.01;99124.70;209423;1314;141567;-71
2022/01/27 19:33:09;;;;;;;16.20;12.20;;;;;;;2.01;88.06;99113.00;208746;1313;141458;-66
2022/01/27 19:38:12;;;;;;;22.30;13.50;;;;;;;2.01;88.25;99102.38;208616;1313;139768;-71
2022/01/27 19:43:19;;;;;;;;;;;;;;;2.03;88.65;99087.27;208467;1316;142086;-67
2022/01/27 19:48:29;;;;;;;18.30;11.70;;;;;;;2.05;88.71;99086.05;208269;1313;127716;-70
2022/01/27 19:53:41;;;;;;;15.30;11.10;;;;;;;2.06;88.11;99092.17;209947;1313;143193;-66
2022/01/27 19:58:44;;;;;;;21.70;12.20;;;;;;;2.08;88.15;99092.10;208856;1311;141546;-71
2022/01/27 20:03:47;;;;;;;20.00;10.20;;;;;;;2.12;88.36;99089.73;207606;1313;141158;-70
2022/01/27 20:08:50;;;;;;;19.00;11.60;;;;;;;2.15;88.20;99080.86;209911;1314;141670;-70
2022/01/27 20:13:56;;;;;;;17.40;10.30;;;;;;;2.17;88.08;99070.02;209658;1313;143444;-70
2022/01/27 20:18:59;;;;;;;17.80;11.60;;;;;;;2.23;88.38;99069.48;209345;1313;140733;-75
2022/01/27 20:24:07;;;;;;;21.90;14.70;;;;;;;2.29;88.10;99073.20;209975;1313;140100;-71
2022/01/27 20:29:12;;;;;;;21.40;12.10;;;;;;;2.39;88.22;99067.13;208808;1318;141198;-72
2022/01/27 20:34:15;;;;;;;16.80;10.80;;;;;;;2.45;88.02;99065.46;209252;1309;141085;-69
2022/01/27 20:39:17;;;;;;;10.60;8.00;;;;;;;2.52;88.06;99062.04;209424;1313;140966;-71
2022/01/27 20:44:19;;;;;;;14.40;9.70;;;;;;;2.58;88.16;99059.06;208826;1313;140233;-73
2022/01/27 20:49:22;;;;;;;16.40;11.70;;;;;;;2.62;87.83;99054.50;207938;1313;141027;-70
2022/01/27 20:54:26;;;;;;;12.70;9.80;;;;;;;2.66;88.20;99044.67;208253;1313;141366;-71
2022/01/27 20:59:30;;;;;;;17.70;11.60;;;;;;;2.68;88.04;99046.55;208497;1315;140418;-69
2022/01/27 21:04:33;;;;;;;18.90;11.20;;;;;;;2.70;88.07;99051.65;208114;1314;140978;-74
2022/01/27 21:09:41;;;;;;;24.30;10.30;;;;;;;2.71;88.08;99050.19;208029;1315;142854;-70
2022/01/27 21:14:44;;;;;;;;;;;;;;;2.75;88.01;99054.80;207546;1316;141534;-69
2022/01/27 21:19:47;;;;;;;13.40;8.80;;;;;;;2.73;88.22;99049.10;208750;1313;127569;-72
2022/01/27 21:24:50;;;;;;;12.70;8.20;;;;;;;2.80;88.17;99053.58;208358;1313;141423;-72
2022/01/27 21:29:57;;;;;;;13.20;10.40;;;;;;;2.87;87.99;99054.92;208069;1313;141349;-68
2022/01/27 21:35:02;;;;;;;8.70;5.90;;;;;;;2.90;87.89;99048.73;208217;1313;139435;-68
2022/01/27 21:40:08;;;;;;;12.20;8.80;;;;;;;2.95;87.93;99041.29;207891;1313;140174;-69
2022/01/27 21:45:11;;;;;;;10.70;8.40;;;;;;;2.96;87.86;99027.48;208422;1313;139679;-67
2022/01/27 21:50:17;;;;;;;15.60;9.80;;;;;;;2.97;87.55;99028.09;208484;1313;139340;-70
2022/01/27 21:55:21;;;;;;;17.20;10.20;;;;;;;3.01;87.79;99021.45;208998;1310;139695;-70
2022/01/27 22:00:27;;;;;;;17.20;9.70;;;;;;;3.03;87.73;99010.84;209387;1313;139981;-68
2022/01/27 22:05:34;;;;;;;22.70;12.60;;;;;;;3.04;87.31;99009.83;208284;1313;140252;-71
2022/01/27 22:10:37;;;;;;;11.30;8.20;;;;;;;3.06;87.39;99005.40;209279;1316;141054;-73
2022/01/27 22:15:40;;;;;;;12.10;9.90;;;;;;;3.07;87.50;98993.94;208599;1318;140835;-68
2022/01/27 22:20:43;;;;;;;13.60;8.60;;;;;;;3.12;87.46;98988.48;209583;1313;139206;-72
2022/01/27 22:25:46;;;;;;;13.70;9.80;;;;;;;3.17;87.33;98982.77;209978;1314;142113;-70
2022/01/27 22:30:50;;;;;;;12.60;7.60;;;;;;;3.17;87.11;98978.97;209331;1314;140336;-70
2022/01/27 22:36:13;;;;;;;13.50;8.70;;;;;;;3.19;86.99;98977.79;208296;1314;151296;-73
2022/01/27 22:41:20;;;;;;;14.20;8.00;;;;;;;3.19;86.99;98963.04;209161;1313;139355;-69
2022/01/27 22:46:23;;;;;;;15.00;8.00;;;;;;;3.18;87.14;98959.60;208646;1313;139919;-69
2022/01/27 22:51:27;;;;;;;11.50;6.30;;;;;;;3.15;87.14;98953.64;207763;1316;139617;-69
2022/01/27 22:56:30;;;;;;;10.10;6.30;;;;;;;3.12;87.04;98947.20;208490;1313;142153;-71
2022/01/27 23:01:33;;;;;;;8.70;7.20;;;;;;;3.10;86.99;98938.30;207196;1314;1226244;-69
2022/01/27 23:06:36;;;;;;;9.60;6.50;;;;;;;3.10;87.03;98930.84;207612;1313;140583;-70
2022/01/27 23:11:45;;;;;;;8.00;5.40;;;;;;;3.08;86.85;98932.67;208742;1319;208643;-70
2022/01/27 23:22:15;;;;;;;9.20;5.40;;;;;;;3.04;86.60;98922.61;207835;1318;233285;-72
2022/01/27 23:27:24;;;;;;;9.00;5.20;;;;;;;2.99;86.54;98915.17;207760;1315;140516;-70
2022/01/27 23:32:27;;;;;;;7.20;4.50;;;;;;;2.95;86.63;98918.77;207627;1316;141887;-73
2022/01/27 23:48:47;;;;;;;9.00;5.30;;;;;;;3.08;86.59;98909.46;208924;1316;140598;-71
2022/01/27 23:54:06;;;;;;;8.30;5.20;;;;;;;3.12;86.72;98897.17;208509;1316;139442;-72
2022/01/27 23:59:16;;;;;;;5.10;3.90;;;;;;;3.17;86.42;98896.80;209325;1313;139567;-74
